createdAt,value
2023-09-27T00:00:30.257Z,95088.84
2023-09-27T00:01:31.927Z,95088.53
2023-09-27T00:02:33.763Z,95079.22
2023-09-27T00:03:35.547Z,95081.63
2023-09-27T00:04:37.299Z,95086.84
2023-09-27T00:05:39.334Z,95082.84
2023-09-27T00:06:42.331Z,95085.16
2023-09-27T00:07:44.177Z,95086.63
2023-09-27T00:08:46.010Z,95082.91
2023-09-27T00:09:48.110Z,95088.19
2023-09-27T00:10:49.934Z,95085.84
2023-09-27T00:11:51.743Z,95090.06
2023-09-27T00:12:53.529Z,95093.66
2023-09-27T00:13:55.260Z,95085.91
2023-09-27T00:14:58.288Z,95090.53
2023-09-27T00:16:00.010Z,95085.84
2023-09-27T00:17:02.061Z,95083.56
2023-09-27T00:18:06.006Z,95087.06
2023-09-27T00:19:07.732Z,95086.56
2023-09-27T00:20:13.621Z,95082.56
2023-09-27T00:21:15.324Z,95078.16
2023-09-27T00:22:17.091Z,95081.06
2023-09-27T00:23:19.420Z,95067.16
2023-09-27T00:24:21.213Z,95077.28
2023-09-27T00:25:23.176Z,95083.00
2023-09-27T00:26:25.195Z,95082.75
2023-09-27T00:27:27.457Z,95079.63
2023-09-27T00:28:29.190Z,95080.25
2023-09-27T00:29:30.845Z,95069.34
2023-09-27T00:30:32.569Z,95077.56
2023-09-27T00:31:34.332Z,95066.75
2023-09-27T00:32:36.829Z,95070.59
2023-09-27T00:33:38.576Z,95072.34
2023-09-27T00:34:40.279Z,95070.38
2023-09-27T00:35:41.912Z,95070.09
2023-09-27T00:36:43.624Z,95074.06
2023-09-27T00:37:45.797Z,95065.94
2023-09-27T00:38:47.418Z,95063.41
2023-09-27T00:39:49.036Z,95069.81
2023-09-27T00:40:51.746Z,95065.69
2023-09-27T00:41:53.587Z,95059.03
2023-09-27T00:42:55.246Z,95062.78
2023-09-27T00:43:56.942Z,95057.28
2023-09-27T00:44:58.735Z,95062.75
2023-09-27T00:46:07.564Z,95058.06
2023-09-27T00:47:09.360Z,95063.34
2023-09-27T00:48:11.165Z,95062.03
2023-09-27T00:49:15.572Z,95060.94
2023-09-27T00:50:17.849Z,95064.22
2023-09-27T00:51:19.803Z,95058.25
2023-09-27T00:52:21.637Z,95065.00
2023-09-27T00:53:26.668Z,95059.03
2023-09-27T00:54:29.110Z,95065.00
2023-09-27T00:55:31.298Z,95071.31
2023-09-27T00:56:34.071Z,95071.34
2023-09-27T00:57:35.946Z,95069.53
2023-09-27T00:58:38.107Z,95067.06
2023-09-27T00:59:39.820Z,95072.88
2023-09-27T01:00:41.489Z,95064.84
2023-09-27T01:01:43.486Z,95063.91
2023-09-27T01:02:45.428Z,95067.63
2023-09-27T01:03:48.354Z,95066.19
2023-09-27T01:04:50.136Z,95067.50
2023-09-27T01:05:52.027Z,95071.25
2023-09-27T01:06:53.736Z,95078.00
2023-09-27T01:07:55.479Z,95073.50
2023-09-27T01:08:57.118Z,95065.25
2023-09-27T01:09:58.861Z,95063.59
2023-09-27T01:11:02.655Z,95076.50
2023-09-27T01:12:05.521Z,95076.50
2023-09-27T01:13:08.577Z,95073.72
2023-09-27T01:14:10.371Z,95076.16
2023-09-27T01:15:12.579Z,95069.63
2023-09-27T01:16:14.366Z,95068.88
2023-09-27T01:17:16.112Z,95072.59
2023-09-27T01:18:17.975Z,95070.69
2023-09-27T01:19:20.137Z,95076.31
2023-09-27T01:20:22.546Z,95070.75
2023-09-27T01:21:24.935Z,95072.59
2023-09-27T01:22:26.556Z,95072.59
2023-09-27T01:23:29.496Z,95068.47
2023-09-27T01:24:31.765Z,95070.69
2023-09-27T01:25:36.198Z,95074.44
2023-09-27T01:26:38.845Z,95072.19
2023-09-27T01:27:41.624Z,95071.81
2023-09-27T01:28:46.452Z,95063.22
2023-09-27T01:29:48.107Z,95066.94
2023-09-27T01:30:49.806Z,95071.66
2023-09-27T01:31:51.491Z,95068.28
2023-09-27T01:32:53.358Z,95072.59
2023-09-27T01:33:55.077Z,95072.97
2023-09-27T01:34:56.898Z,95070.88
2023-09-27T01:35:58.924Z,95071.09
2023-09-27T01:37:00.579Z,95072.59
2023-09-27T01:38:03.506Z,95078.22
2023-09-27T01:39:09.433Z,95075.94
2023-09-27T01:40:11.970Z,95073.56
2023-09-27T01:41:14.669Z,95071.25
2023-09-27T01:42:16.619Z,95072.75
2023-09-27T01:43:18.297Z,95072.97
2023-09-27T01:44:20.152Z,95071.69
2023-09-27T01:45:22.105Z,95074.50
2023-09-27T01:46:23.975Z,95077.84
2023-09-27T01:47:25.700Z,95074.13
2023-09-27T01:48:27.444Z,95078.22
2023-09-27T01:49:29.060Z,95073.69
2023-09-27T01:50:33.660Z,95066.59
2023-09-27T01:51:35.425Z,95067.69
2023-09-27T01:52:37.176Z,95075.00
2023-09-27T01:53:38.941Z,95069.25
2023-09-27T01:54:40.568Z,95067.38
2023-09-27T01:55:42.293Z,95069.59
2023-09-27T01:56:43.966Z,95067.69
2023-09-27T01:57:49.033Z,95069.00
2023-09-27T01:58:50.990Z,95068.06
2023-09-27T01:59:52.804Z,95071.50
2023-09-27T02:00:54.562Z,95072.59
2023-09-27T02:01:56.208Z,95072.19
2023-09-27T02:03:00.056Z,95072.19
2023-09-27T02:04:01.907Z,95069.38
2023-09-27T02:05:03.902Z,95073.69
2023-09-27T02:06:05.854Z,95068.06
2023-09-27T02:07:07.607Z,95068.06
2023-09-27T02:08:12.814Z,95072.19
2023-09-27T02:09:15.458Z,95065.09
2023-09-27T02:10:17.283Z,95069.59
2023-09-27T02:11:20.666Z,95064.34
2023-09-27T02:12:22.464Z,95063.22
2023-09-27T02:13:24.106Z,95063.97
2023-09-27T02:14:25.966Z,95067.31
2023-09-27T02:15:27.712Z,95072.75
2023-09-27T02:16:29.381Z,95067.88
2023-09-27T02:17:31.124Z,95074.41
2023-09-27T02:18:32.790Z,95067.66
2023-09-27T02:19:35.572Z,95064.72
2023-09-27T02:20:37.644Z,95068.47
2023-09-27T02:21:40.109Z,95064.50
2023-09-27T02:22:42.767Z,95074.41
2023-09-27T02:23:44.460Z,95069.53
2023-09-27T02:24:46.074Z,95066.19
2023-09-27T02:25:57.805Z,95070.84
2023-09-27T02:26:59.571Z,95079.84
2023-09-27T02:28:01.217Z,95072.56
2023-09-27T02:29:03.272Z,95075.94
2023-09-27T02:30:07.662Z,95071.44
2023-09-27T02:31:11.270Z,95071.81
2023-09-27T02:32:13.024Z,95077.03
2023-09-27T02:33:14.807Z,95064.88
2023-09-27T02:34:18.010Z,95071.09
2023-09-27T02:35:21.033Z,95070.69
2023-09-27T02:36:22.712Z,95076.31
2023-09-27T02:37:25.364Z,95072.91
2023-09-27T02:38:27.393Z,95083.00
2023-09-27T02:39:30.149Z,95075.16
2023-09-27T02:40:31.780Z,95073.13
2023-09-27T02:41:33.519Z,95075.19
2023-09-27T02:42:35.516Z,95077.41
2023-09-27T02:43:37.153Z,95075.91
2023-09-27T02:44:39.273Z,95076.66
2023-09-27T02:45:41.255Z,95077.41
2023-09-27T02:46:42.917Z,95081.91
2023-09-27T02:47:48.009Z,95083.75
2023-09-27T02:48:50.139Z,95081.16
2023-09-27T02:49:51.889Z,95080.19
2023-09-27T02:50:56.530Z,95087.50
2023-09-27T02:51:58.190Z,95080.22
2023-09-27T02:53:00.003Z,95087.88
2023-09-27T02:54:01.742Z,95088.25
2023-09-27T02:55:03.712Z,95092.75
2023-09-27T02:56:06.488Z,95090.13
2023-09-27T02:57:08.464Z,95091.44
2023-09-27T02:58:10.143Z,95087.88
2023-09-27T02:59:12.406Z,95091.66
2023-09-27T03:00:14.460Z,95087.88
2023-09-27T03:01:16.300Z,95092.38
2023-09-27T03:02:18.068Z,95087.88
2023-09-27T03:03:20.832Z,95093.13
2023-09-27T03:04:22.673Z,95087.31
2023-09-27T03:05:24.882Z,95091.66
2023-09-27T03:06:26.954Z,95091.06
2023-09-27T03:07:28.658Z,95092.75
2023-09-27T03:08:31.250Z,95092.38
2023-09-27T03:09:33.039Z,95088.59
2023-09-27T03:10:39.910Z,95099.44
2023-09-27T03:11:43.558Z,95093.84
2023-09-27T03:12:49.514Z,95095.91
2023-09-27T03:13:51.163Z,95103.97
2023-09-27T03:14:52.887Z,95098.16
2023-09-27T03:15:58.385Z,95093.50
2023-09-27T03:17:01.740Z,95092.75
2023-09-27T03:18:04.541Z,95098.38
2023-09-27T03:19:06.315Z,95094.25
2023-09-27T03:20:10.563Z,95097.25
2023-09-27T03:21:12.277Z,95098.38
2023-09-27T03:22:13.932Z,95099.47
2023-09-27T03:23:15.625Z,95097.97
2023-09-27T03:24:17.351Z,95093.09
2023-09-27T03:25:19.725Z,95094.19
2023-09-27T03:26:23.753Z,95094.78
2023-09-27T03:27:25.867Z,95097.94
2023-09-27T03:28:27.552Z,95091.78
2023-09-27T03:29:30.179Z,95088.78
2023-09-27T03:30:31.788Z,95091.38
2023-09-27T03:31:33.796Z,95088.59
2023-09-27T03:32:36.014Z,95094.00
2023-09-27T03:33:37.773Z,95098.69
2023-09-27T03:34:39.814Z,95100.19
2023-09-27T03:35:42.496Z,95101.28
2023-09-27T03:36:45.493Z,95100.94
2023-09-27T03:37:48.213Z,95097.97
2023-09-27T03:38:50.882Z,95102.47
2023-09-27T03:39:56.995Z,95100.97
2023-09-27T03:40:58.728Z,95106.53
2023-09-27T03:42:00.397Z,95102.44
2023-09-27T03:43:02.079Z,95096.44
2023-09-27T03:44:04.353Z,95099.59
2023-09-27T03:45:06.872Z,95099.03
2023-09-27T03:46:08.678Z,95103.16
2023-09-27T03:47:10.410Z,95095.13
2023-09-27T03:48:12.464Z,95105.00
2023-09-27T03:49:14.228Z,95100.50
2023-09-27T03:50:16.262Z,95101.66
2023-09-27T03:51:25.621Z,95107.25
2023-09-27T03:52:27.237Z,95114.00
2023-09-27T03:53:29.035Z,95106.72
2023-09-27T03:54:30.648Z,95111.38
2023-09-27T03:55:32.331Z,95110.63
2023-09-27T03:56:34.076Z,95110.63
2023-09-27T03:57:36.095Z,95106.09
2023-09-27T03:58:37.756Z,95110.91
2023-09-27T03:59:39.398Z,95118.78
2023-09-27T04:00:41.078Z,95107.00
2023-09-27T04:01:43.208Z,95113.19
2023-09-27T04:02:45.907Z,95117.09
2023-09-27T04:03:47.809Z,95113.56
2023-09-27T04:04:49.490Z,95119.34
2023-09-27T04:05:51.084Z,95113.25
2023-09-27T04:06:53.077Z,95118.91
2023-09-27T04:08:13.198Z,95117.59
2023-09-27T04:09:15.078Z,95113.03
2023-09-27T04:10:18.672Z,95127.06
2023-09-27T04:11:20.325Z,95118.84
2023-09-27T04:12:22.000Z,95116.56
2023-09-27T04:13:23.645Z,95113.00
2023-09-27T04:14:25.303Z,95111.69
2023-09-27T04:15:27.397Z,95117.31
2023-09-27T04:16:32.080Z,95122.56
2023-09-27T04:17:34.132Z,95125.00
2023-09-27T04:18:37.029Z,95119.59
2023-09-27T04:19:38.741Z,95118.66
2023-09-27T04:20:40.483Z,95121.47
2023-09-27T04:21:42.171Z,95116.94
2023-09-27T04:22:51.772Z,95119.97
2023-09-27T04:23:58.356Z,95114.38
2023-09-27T04:25:00.857Z,95127.31
2023-09-27T04:26:05.694Z,95116.63
2023-09-27T04:27:07.356Z,95120.00
2023-09-27T04:28:11.278Z,95125.22
2023-09-27T04:29:13.030Z,95117.34
2023-09-27T04:30:16.202Z,95123.34
2023-09-27T04:31:18.416Z,95117.38
2023-09-27T04:32:20.422Z,95119.25
2023-09-27T04:33:24.381Z,95115.84
2023-09-27T04:34:26.214Z,95124.06
2023-09-27T04:35:27.933Z,95121.81
2023-09-27T04:36:29.617Z,95119.97
2023-09-27T04:37:31.459Z,95124.03
2023-09-27T04:38:35.080Z,95122.91
2023-09-27T04:39:36.689Z,95121.97
2023-09-27T04:40:38.360Z,95129.81
2023-09-27T04:41:40.026Z,95126.50
2023-09-27T04:42:43.107Z,95127.41
2023-09-27T04:43:47.943Z,95130.03
2023-09-27T04:44:49.646Z,95126.66
2023-09-27T04:45:52.966Z,95131.34
2023-09-27T04:46:54.720Z,95125.59
2023-09-27T04:47:56.422Z,95125.97
2023-09-27T04:48:58.997Z,95129.88
2023-09-27T04:50:00.682Z,95129.31
2023-09-27T04:51:03.150Z,95124.47
2023-09-27T04:52:04.840Z,95131.19
2023-09-27T04:53:06.920Z,95127.41
2023-09-27T04:54:11.521Z,95133.06
2023-09-27T04:55:14.188Z,95132.91
2023-09-27T04:56:16.418Z,95134.97
2023-09-27T04:57:18.060Z,95140.97
2023-09-27T04:58:19.727Z,95136.84
2023-09-27T04:59:22.812Z,95134.22
2023-09-27T05:00:26.607Z,95141.91
2023-09-27T05:01:28.890Z,95143.44
2023-09-27T05:02:30.968Z,95136.03
2023-09-27T05:03:33.264Z,95143.72
2023-09-27T05:04:35.032Z,95135.47
2023-09-27T05:05:37.797Z,95133.97
2023-09-27T05:06:39.435Z,95137.34
2023-09-27T05:07:41.758Z,95138.06
2023-09-27T05:08:43.547Z,95139.22
2023-09-27T05:09:45.407Z,95138.09
2023-09-27T05:10:48.040Z,95142.59
2023-09-27T05:11:49.847Z,95141.09
2023-09-27T05:12:51.565Z,95138.50
2023-09-27T05:13:53.244Z,95140.19
2023-09-27T05:14:54.869Z,95144.88
2023-09-27T05:15:58.305Z,95144.88
2023-09-27T05:17:00.175Z,95135.53
2023-09-27T05:18:01.898Z,95142.06
2023-09-27T05:19:03.654Z,95142.44
2023-09-27T05:20:12.987Z,95137.75
2023-09-27T05:21:17.280Z,95139.22
2023-09-27T05:22:20.511Z,95137.75
2023-09-27T05:23:22.244Z,95143.16
2023-09-27T05:24:23.916Z,95146.38
2023-09-27T05:25:25.704Z,95147.09
2023-09-27T05:26:28.237Z,95144.16
2023-09-27T05:27:29.875Z,95147.50
2023-09-27T05:28:33.715Z,95139.44
2023-09-27T05:29:36.115Z,95138.66
2023-09-27T05:30:37.820Z,95138.81
2023-09-27T05:31:41.518Z,95138.19
2023-09-27T05:32:44.435Z,95130.97
2023-09-27T05:33:46.650Z,95137.63
2023-09-27T05:34:49.264Z,95136.91
2023-09-27T05:35:51.496Z,95139.13
2023-09-27T05:36:54.922Z,95139.13
2023-09-27T05:37:57.212Z,95146.44
2023-09-27T05:38:58.865Z,95148.06
2023-09-27T05:40:00.622Z,95146.03
2023-09-27T05:41:02.267Z,95148.13
2023-09-27T05:42:05.135Z,95136.91
2023-09-27T05:43:06.804Z,95148.19
2023-09-27T05:44:08.476Z,95145.75
2023-09-27T05:45:13.851Z,95145.94
2023-09-27T05:46:15.611Z,95142.59
2023-09-27T05:47:18.515Z,95141.47
2023-09-27T05:48:20.285Z,95150.81
2023-09-27T05:49:22.025Z,95144.84
2023-09-27T05:50:24.286Z,95145.78
2023-09-27T05:51:27.803Z,95152.19
2023-09-27T05:52:31.835Z,95144.94
2023-09-27T05:53:33.518Z,95136.34
2023-09-27T05:54:35.162Z,95136.91
2023-09-27T05:55:36.908Z,95145.34
2023-09-27T05:56:39.469Z,95140.69
2023-09-27T05:57:42.109Z,95152.31
2023-09-27T05:58:44.327Z,95141.47
2023-09-27T05:59:46.395Z,95144.88
2023-09-27T06:00:49.230Z,95147.88
2023-09-27T06:01:52.858Z,95149.38
2023-09-27T06:02:55.826Z,95151.63
2023-09-27T06:03:57.713Z,95142.66
2023-09-27T06:05:00.455Z,95148.81
2023-09-27T06:06:02.233Z,95150.44
2023-09-27T06:07:05.327Z,95144.81
2023-09-27T06:08:08.777Z,95152.19
2023-09-27T06:09:10.815Z,95152.50
2023-09-27T06:10:12.471Z,95151.44
2023-09-27T06:11:14.110Z,95154.34
2023-09-27T06:12:16.345Z,95146.69
2023-09-27T06:13:19.078Z,95149.03
2023-09-27T06:14:22.842Z,95150.38
2023-09-27T06:15:24.545Z,95152.97
2023-09-27T06:16:26.226Z,95151.00
2023-09-27T06:17:28.566Z,95149.97
2023-09-27T06:18:32.325Z,95152.22
2023-09-27T06:19:34.320Z,95153.06
2023-09-27T06:20:39.692Z,95152.03
2023-09-27T06:21:41.651Z,95156.88
2023-09-27T06:22:44.322Z,95154.78
2023-09-27T06:23:46.190Z,95152.97
2023-09-27T06:24:47.847Z,95150.25
2023-09-27T06:25:49.494Z,95154.00
2023-09-27T06:26:51.744Z,95153.06
2023-09-27T06:27:54.593Z,95157.16
2023-09-27T06:28:56.282Z,95165.44
2023-09-27T06:29:58.543Z,95163.19
2023-09-27T06:31:00.749Z,95156.09
2023-09-27T06:32:02.562Z,95161.13
2023-09-27T06:33:05.030Z,95165.47
2023-09-27T06:34:07.380Z,95156.28
2023-09-27T06:35:14.652Z,95160.94
2023-09-27T06:36:17.405Z,95162.59
2023-09-27T06:37:19.722Z,95169.69
2023-09-27T06:38:24.391Z,95164.00
2023-09-27T06:39:26.293Z,95167.31
2023-09-27T06:40:30.600Z,95159.00
2023-09-27T06:41:32.478Z,95170.44
2023-09-27T06:42:34.184Z,95168.16
2023-09-27T06:43:37.718Z,95167.63
2023-09-27T06:44:41.887Z,95165.41
2023-09-27T06:45:44.495Z,95160.44
2023-09-27T06:46:49.120Z,95161.81
2023-09-27T06:47:51.324Z,95173.06
2023-09-27T06:48:54.313Z,95168.13
2023-09-27T06:49:56.705Z,95166.88
2023-09-27T06:50:58.320Z,95170.22
2023-09-27T06:51:59.947Z,95163.56
2023-09-27T06:53:15.719Z,95159.75
2023-09-27T06:54:23.355Z,95157.03
2023-09-27T06:55:25.280Z,95164.50
2023-09-27T06:56:26.988Z,95165.38
2023-09-27T06:57:28.867Z,95168.75
2023-09-27T06:58:31.249Z,95176.06
2023-09-27T06:59:33.298Z,95170.19
2023-09-27T07:00:35.084Z,95168.72
2023-09-27T07:01:36.829Z,95173.63
2023-09-27T07:02:42.548Z,95176.19
2023-09-27T07:03:44.460Z,95181.59
2023-09-27T07:04:47.551Z,95172.69
2023-09-27T07:05:49.339Z,95168.31
2023-09-27T07:06:51.013Z,95174.72
2023-09-27T07:07:54.376Z,95173.44
2023-09-27T07:08:59.343Z,95168.66
2023-09-27T07:10:01.176Z,95175.66
2023-09-27T07:11:07.161Z,95172.88
2023-09-27T07:12:09.552Z,95175.47
2023-09-27T07:13:11.231Z,95177.59
2023-09-27T07:14:18.822Z,95174.56
2023-09-27T07:15:20.673Z,95184.81
2023-09-27T07:16:27.867Z,95178.78
2023-09-27T07:17:30.423Z,95184.00
2023-09-27T07:18:32.310Z,95182.53
2023-09-27T07:19:34.057Z,95177.00
2023-09-27T07:20:36.163Z,95180.38
2023-09-27T07:21:38.245Z,95178.41
2023-09-27T07:22:39.913Z,95186.19
2023-09-27T07:23:41.741Z,95180.28
2023-09-27T07:24:44.097Z,95176.63
2023-09-27T07:25:46.039Z,95176.41
2023-09-27T07:26:50.060Z,95184.84
2023-09-27T07:27:56.081Z,95183.56
2023-09-27T07:28:57.787Z,95167.31
2023-09-27T07:29:59.451Z,95175.34
2023-09-27T07:31:01.132Z,95182.09
2023-09-27T07:32:03.221Z,95180.81
2023-09-27T07:33:12.699Z,95181.22
2023-09-27T07:34:15.227Z,95170.00
2023-09-27T07:35:18.203Z,95180.84
2023-09-27T07:36:22.134Z,95183.63
2023-09-27T07:37:23.874Z,95180.09
2023-09-27T07:38:27.027Z,95189.41
2023-09-27T07:39:28.763Z,95187.75
2023-09-27T07:40:30.886Z,95184.94
2023-09-27T07:41:33.221Z,95182.66
2023-09-27T07:42:34.929Z,95192.78
2023-09-27T07:43:38.194Z,95181.03
2023-09-27T07:44:40.402Z,95188.66
2023-09-27T07:45:43.848Z,95192.44
2023-09-27T07:46:45.978Z,95175.38
2023-09-27T07:47:54.272Z,95183.81
2023-09-27T07:48:56.162Z,95179.13
2023-09-27T07:49:57.900Z,95183.63
2023-09-27T07:51:00.244Z,95189.63
2023-09-27T07:52:01.963Z,95196.50
2023-09-27T07:53:07.656Z,95181.75
2023-09-27T07:54:09.926Z,95174.44
2023-09-27T07:55:13.380Z,95183.22
2023-09-27T07:56:23.507Z,95177.81
2023-09-27T07:57:25.576Z,95184.09
2023-09-27T07:58:27.286Z,95179.25
2023-09-27T07:59:29.709Z,95182.78
2023-09-27T08:00:31.651Z,95174.44
2023-09-27T08:01:34.552Z,95169.59
2023-09-27T08:02:36.360Z,95173.66
2023-09-27T08:03:39.858Z,95167.72
2023-09-27T08:04:41.907Z,95174.81
2023-09-27T08:05:45.003Z,95164.19
2023-09-27T08:06:47.738Z,95172.22
2023-09-27T08:07:50.232Z,95168.13
2023-09-27T08:08:53.538Z,95167.38
2023-09-27T08:10:00.915Z,95173.97
2023-09-27T08:11:08.213Z,95167.09
2023-09-27T08:12:09.832Z,95168.22
2023-09-27T08:13:13.087Z,95166.28
2023-09-27T08:14:17.373Z,95164.06
2023-09-27T08:15:19.517Z,95167.63
2023-09-27T08:16:21.484Z,95169.91
2023-09-27T08:17:23.191Z,95166.66
2023-09-27T08:18:26.807Z,95167.47
2023-09-27T08:19:28.545Z,95166.34
2023-09-27T08:20:30.243Z,95177.97
2023-09-27T08:21:31.936Z,95175.72
2023-09-27T08:22:37.141Z,95176.09
2023-09-27T08:23:38.975Z,95172.53
2023-09-27T08:24:40.681Z,95169.34
2023-09-27T08:25:42.407Z,95174.97
2023-09-27T08:26:46.207Z,95171.41
2023-09-27T08:27:51.989Z,95166.38
2023-09-27T08:28:53.928Z,95160.75
2023-09-27T08:29:55.946Z,95161.09
2023-09-27T08:31:01.356Z,95170.09
2023-09-27T08:32:03.300Z,95170.47
2023-09-27T08:33:05.861Z,95171.41
2023-09-27T08:34:07.567Z,95168.22
2023-09-27T08:35:09.761Z,95170.66
2023-09-27T08:36:12.403Z,95158.84
2023-09-27T08:37:14.131Z,95156.41
2023-09-27T08:38:15.881Z,95158.09
2023-09-27T08:39:17.591Z,95164.47
2023-09-27T08:40:19.413Z,95160.75
2023-09-27T08:41:24.273Z,95161.28
2023-09-27T08:42:27.207Z,95161.47
2023-09-27T08:43:30.669Z,95166.91
2023-09-27T08:44:33.941Z,95162.59
2023-09-27T08:45:39.554Z,95151.94
2023-09-27T08:46:41.801Z,95167.66
2023-09-27T08:47:46.305Z,95166.72
2023-09-27T08:48:49.918Z,95166.16
2023-09-27T08:49:52.266Z,95170.09
2023-09-27T08:50:56.064Z,95170.47
2023-09-27T08:51:59.031Z,95156.59
2023-09-27T08:53:00.775Z,95165.78
2023-09-27T08:54:02.606Z,95165.59
2023-09-27T08:55:05.141Z,95156.97
2023-09-27T08:56:07.807Z,95162.97
2023-09-27T08:57:10.673Z,95162.41
2023-09-27T08:58:14.992Z,95168.00
2023-09-27T08:59:16.946Z,95159.59
2023-09-27T09:00:27.585Z,95161.09
2023-09-27T09:01:29.925Z,95164.47
2023-09-27T09:02:31.737Z,95157.34
2023-09-27T09:03:34.233Z,95159.44
2023-09-27T09:04:36.842Z,95157.34
2023-09-27T09:05:39.885Z,95158.47
2023-09-27T09:06:41.983Z,95169.34
2023-09-27T09:07:46.267Z,95163.34
2023-09-27T09:08:48.289Z,95155.50
2023-09-27T09:09:50.053Z,95161.28
2023-09-27T09:10:54.583Z,95152.09
2023-09-27T09:12:01.397Z,95148.72
2023-09-27T09:13:05.033Z,95155.09
2023-09-27T09:14:06.872Z,95155.47
2023-09-27T09:15:16.867Z,95162.94
2023-09-27T09:16:24.751Z,95158.44
2023-09-27T09:17:35.688Z,95156.03
2023-09-27T09:18:40.902Z,95147.19
2023-09-27T09:19:45.518Z,95153.56
2023-09-27T09:20:56.124Z,95155.28
2023-09-27T09:22:01.508Z,95156.59
2023-09-27T09:23:13.828Z,95161.84
2023-09-27T09:24:21.823Z,95154.53
2023-09-27T09:25:26.631Z,95144.38
2023-09-27T09:26:30.840Z,95148.56
2023-09-27T09:27:34.191Z,95147.97
2023-09-27T09:28:37.657Z,95144.25
2023-09-27T09:29:53.739Z,95140.84
2023-09-27T09:30:55.461Z,95136.34
2023-09-27T09:31:59.808Z,95139.72
2023-09-27T09:33:01.598Z,95133.69
2023-09-27T09:34:04.566Z,95144.75
2023-09-27T09:35:09.961Z,95147.19
2023-09-27T09:36:11.670Z,95137.03
2023-09-27T09:37:24.705Z,95132.00
2023-09-27T09:38:30.358Z,95142.66
2023-09-27T09:39:32.376Z,95136.09
2023-09-27T09:40:35.416Z,95136.09
2023-09-27T09:41:53.923Z,95138.16
2023-09-27T09:42:59.740Z,95139.81
2023-09-27T09:44:19.356Z,95131.22
2023-09-27T09:45:21.428Z,95134.22
2023-09-27T09:46:25.483Z,95132.53
2023-09-27T09:47:29.257Z,95125.41
2023-09-27T09:48:33.310Z,95130.13
2023-09-27T09:49:36.241Z,95122.78
2023-09-27T09:50:37.918Z,95130.84
2023-09-27T09:51:42.879Z,95139.63
2023-09-27T09:52:52.973Z,95126.31
2023-09-27T09:53:55.953Z,95129.16
2023-09-27T09:55:18.024Z,95130.84
2023-09-27T09:57:44.860Z,95128.03
2023-09-27T09:59:06.101Z,95128.03
2023-09-27T10:00:19.840Z,95128.38
2023-09-27T10:01:23.164Z,95135.91
2023-09-27T10:02:28.833Z,95133.66
2023-09-27T10:03:35.185Z,95121.44
2023-09-27T10:04:38.414Z,95122.56
2023-09-27T10:05:41.116Z,95122.75
2023-09-27T10:06:49.313Z,95122.91
2023-09-27T10:07:52.549Z,95121.69
2023-09-27T10:08:55.037Z,95119.81
2023-09-27T10:09:58.538Z,95118.13
2023-09-27T10:11:06.963Z,95111.56
2023-09-27T10:12:11.692Z,95105.16
2023-09-27T10:13:14.926Z,95108.91
2023-09-27T10:14:19.114Z,95113.75
2023-09-27T10:15:23.393Z,95112.81
2023-09-27T10:16:25.708Z,95106.63
2023-09-27T10:17:28.017Z,95102.13
2023-09-27T10:18:31.178Z,95096.72
2023-09-27T10:19:32.913Z,95105.69
2023-09-27T10:20:34.611Z,95100.59
2023-09-27T10:21:47.573Z,95109.25
2023-09-27T10:22:50.332Z,95104.72
2023-09-27T10:23:54.490Z,95100.97
2023-09-27T10:24:56.128Z,95097.19
2023-09-27T10:26:17.967Z,95099.28
2023-09-27T10:27:20.126Z,95102.25
2023-09-27T10:28:21.756Z,95104.28
2023-09-27T10:29:23.922Z,95090.44
2023-09-27T10:30:25.990Z,95101.31
2023-09-27T10:31:31.407Z,95114.06
2023-09-27T10:32:33.140Z,95105.03
2023-09-27T10:33:35.795Z,95097.91
2023-09-27T10:34:41.393Z,95094.34
2023-09-27T10:35:48.350Z,95090.81
2023-09-27T10:36:59.573Z,95082.13
2023-09-27T10:38:10.587Z,95085.72
2023-09-27T10:39:12.408Z,95081.56
2023-09-27T10:40:22.127Z,95081.72
2023-09-27T10:41:33.532Z,95083.25
2023-09-27T10:42:44.079Z,95094.13
2023-09-27T10:43:47.404Z,95097.28
2023-09-27T10:44:51.458Z,95089.38
2023-09-27T10:45:57.305Z,95073.63
2023-09-27T10:47:02.235Z,95083.59
2023-09-27T10:48:20.387Z,95082.91
2023-09-27T10:49:26.999Z,95079.09
2023-09-27T10:50:30.980Z,95089.22
2023-09-27T10:51:33.227Z,95088.28
2023-09-27T10:52:34.918Z,95079.31
2023-09-27T10:53:36.543Z,95083.44
2023-09-27T10:54:40.039Z,95076.38
2023-09-27T10:55:42.025Z,95079.19
2023-09-27T10:56:46.123Z,95076.72
2023-09-27T10:57:47.900Z,95078.41
2023-09-27T10:58:53.279Z,95072.25
2023-09-27T10:59:55.650Z,95073.13
2023-09-27T11:01:05.953Z,95069.34
2023-09-27T11:02:08.306Z,95064.81
2023-09-27T11:03:20.165Z,95072.16
2023-09-27T11:04:24.198Z,95070.13
2023-09-27T11:05:27.156Z,95071.25
2023-09-27T11:06:32.623Z,95060.38
2023-09-27T11:07:48.471Z,95065.63
2023-09-27T11:08:50.191Z,95066.75
2023-09-27T11:09:53.789Z,95056.25
2023-09-27T11:10:58.139Z,95063.56
2023-09-27T11:12:00.506Z,95053.94
2023-09-27T11:13:13.881Z,95064.28
2023-09-27T11:14:31.154Z,95063.91
2023-09-27T11:15:32.863Z,95060.88
2023-09-27T11:16:34.729Z,95047.97
2023-09-27T11:17:36.543Z,95052.09
2023-09-27T11:18:47.815Z,95052.69
2023-09-27T11:19:50.442Z,95057.53
2023-09-27T11:20:52.167Z,95055.44
2023-09-27T11:21:53.899Z,95052.41
2023-09-27T11:22:59.883Z,95056.19
2023-09-27T11:24:04.586Z,95049.44
2023-09-27T11:25:27.399Z,95054.72
2023-09-27T11:26:33.110Z,95049.00
2023-09-27T11:27:34.927Z,95053.50
2023-09-27T11:28:36.628Z,95058.38
2023-09-27T11:29:38.763Z,95054.22
2023-09-27T11:30:40.431Z,95051.25
2023-09-27T11:31:42.165Z,95052.75
2023-09-27T11:32:53.244Z,95058.03
2023-09-27T11:34:20.618Z,95052.09
2023-09-27T11:35:22.530Z,95050.97
2023-09-27T11:36:24.286Z,95047.97
2023-09-27T11:37:27.151Z,95054.91
2023-09-27T11:38:28.893Z,95049.47
2023-09-27T11:39:51.909Z,95044.97
2023-09-27T11:40:55.207Z,95049.63
2023-09-27T11:42:01.666Z,95064.84
2023-09-27T11:43:04.218Z,95053.19
2023-09-27T11:44:19.433Z,95053.59
2023-09-27T11:45:21.193Z,95048.00
2023-09-27T11:46:29.547Z,95048.97
2023-09-27T11:47:33.718Z,95054.78
2023-09-27T11:48:36.137Z,95057.78
2023-09-27T11:49:38.126Z,95058.47
2023-09-27T11:50:39.886Z,95059.56
2023-09-27T11:51:41.620Z,95068.19
2023-09-27T11:52:48.090Z,95056.94
2023-09-27T11:53:49.940Z,95053.94
2023-09-27T11:54:54.339Z,95062.38
2023-09-27T11:55:56.758Z,95051.50
2023-09-27T11:56:59.073Z,95048.69
2023-09-27T11:58:01.370Z,95050.41
2023-09-27T11:59:07.137Z,95048.94
2023-09-27T12:00:10.054Z,95050.66
2023-09-27T12:01:13.051Z,95047.25
2023-09-27T12:02:28.244Z,95048.75
2023-09-27T12:03:32.801Z,95049.47
2023-09-27T12:04:35.106Z,95052.78
2023-09-27T12:05:38.970Z,95050.38
2023-09-27T12:06:41.281Z,95050.25
2023-09-27T12:07:44.998Z,95040.16
2023-09-27T12:08:47.118Z,95047.25
2023-09-27T12:09:48.848Z,95039.41
2023-09-27T12:10:50.456Z,95046.50
2023-09-27T12:11:52.219Z,95038.03
2023-09-27T12:12:55.617Z,95040.84
2023-09-27T12:13:57.226Z,95041.13
2023-09-27T12:14:58.851Z,95039.97
2023-09-27T12:16:00.533Z,95041.09
2023-09-27T12:17:02.255Z,95043.13
2023-09-27T12:18:04.582Z,95031.47
2023-09-27T12:19:06.458Z,95041.19
2023-09-27T12:20:15.740Z,95035.22
2023-09-27T12:21:25.214Z,95040.22
2023-09-27T12:22:29.540Z,95040.06
2023-09-27T12:23:31.557Z,95043.03
2023-09-27T12:24:33.208Z,95041.72
2023-09-27T12:25:35.197Z,95046.03